createdAt,value
2022-09-15T11:55:24.261Z,2.47
2022-09-15T12:00:31.969Z,2.90
2022-09-15T12:03:27.473Z,3.95
2022-09-15T12:06:02.661Z,2.75
2022-09-15T12:08:51.243Z,4.30
2022-09-15T12:11:22.571Z,3.00
2022-09-15T12:13:52.283Z,2.53
2022-09-15T12:16:21.473Z,2.72
2022-09-15T12:19:12.027Z,2.38
2022-09-15T12:22:02.187Z,2.67
2022-09-15T12:25:08.688Z,2.85
2022-09-15T12:27:37.007Z,3.35
2022-09-15T12:30:06.325Z,2.42
2022-09-15T12:32:35.394Z,2.38
2022-09-15T12:35:25.395Z,3.53
2022-09-15T12:37:55.430Z,2.47
2022-09-15T12:40:37.054Z,1.98
2022-09-15T12:43:23.004Z,2.63
2022-09-15T12:46:01.853Z,2.25
2022-09-15T12:48:34.736Z,2.45
2022-09-15T12:51:10.639Z,2.63
2022-09-15T12:53:48.063Z,2.58
2022-09-15T12:56:28.072Z,2.08
2022-09-15T12:58:56.822Z,2.30
2022-09-15T13:01:25.273Z,2.67
2022-09-15T13:03:57.952Z,2.15
2022-09-15T13:06:34.383Z,2.38
2022-09-15T13:09:05.670Z,2.40
2022-09-15T13:11:38.634Z,2.35
2022-09-15T13:14:25.969Z,2.70
2022-09-15T13:17:13.679Z,2.35
2022-09-15T13:19:46.749Z,2.60
2022-09-15T13:22:37.796Z,2.08
2022-09-15T13:25:14.799Z,2.47
2022-09-15T13:27:50.470Z,2.50
2022-09-15T13:30:21.616Z,2.55
2022-09-15T13:33:01.945Z,2.25
2022-09-15T13:35:42.465Z,3.13
2022-09-15T13:38:38.537Z,2.70
2022-09-15T13:41:23.634Z,2.30
2022-09-15T13:44:15.245Z,2.25
2022-09-15T13:50:05.445Z,2.20
2022-09-15T13:52:56.912Z,2.20
2022-09-15T13:55:29.873Z,2.17
2022-09-15T14:00:55.051Z,2.40
2022-09-15T14:03:37.192Z,2.10
2022-09-15T14:06:34.229Z,2.72
2022-09-15T14:09:06.925Z,2.80
2022-09-15T14:11:36.979Z,2.78
2022-09-15T14:14:10.115Z,3.15
2022-09-15T14:16:39.367Z,2.22
2022-09-15T14:19:41.384Z,2.20
2022-09-15T14:22:21.291Z,2.10
2022-09-15T14:24:51.256Z,2.67
2022-09-15T14:27:29.150Z,2.47
2022-09-15T14:29:58.959Z,2.08
2022-09-15T14:32:28.900Z,2.53
2022-09-15T14:35:00.658Z,2.58
2022-09-15T14:37:31.693Z,2.45
2022-09-15T14:40:02.106Z,2.53
2022-09-15T14:42:35.770Z,2.63
2022-09-15T14:48:03.911Z,2.50
2022-09-15T14:50:33.610Z,2.60
2022-09-15T14:53:13.637Z,3.13
2022-09-15T14:56:07.051Z,3.10
2022-09-15T14:58:38.727Z,3.92
2022-09-15T15:01:35.227Z,2.60
2022-09-15T15:04:20.662Z,2.92
2022-09-15T15:06:54.490Z,2.88
2022-09-15T15:09:33.993Z,2.63
2022-09-15T15:12:06.857Z,2.50
2022-09-15T15:14:38.492Z,2.50
2022-09-15T15:17:11.458Z,3.00
2022-09-15T15:19:41.919Z,2.65
2022-09-15T15:22:15.812Z,2.30
2022-09-15T15:24:46.362Z,2.20
2022-09-15T15:27:33.129Z,2.30
2022-09-15T15:30:23.966Z,2.47
2022-09-15T15:32:52.764Z,3.03
2022-09-15T15:35:21.596Z,3.33
2022-09-15T15:37:50.389Z,2.65
2022-09-15T15:40:23.467Z,2.80
2022-09-15T15:43:17.311Z,2.60
2022-09-15T15:45:51.219Z,2.65
2022-09-15T15:48:19.588Z,2.88
2022-09-15T15:50:47.914Z,2.70
2022-09-15T15:53:16.496Z,2.60
2022-09-15T15:55:48.110Z,3.08
2022-09-15T15:58:16.730Z,2.70
2022-09-15T16:00:50.544Z,2.75
2022-09-15T16:03:21.242Z,3.42
2022-09-15T16:05:55.114Z,2.72
2022-09-15T16:08:31.310Z,2.85
2022-09-15T16:11:01.785Z,3.00
2022-09-15T16:13:30.618Z,6.32
2022-09-15T16:16:01.133Z,6.20
2022-09-15T16:18:30.320Z,4.90
2022-09-15T16:20:58.983Z,4.28
2022-09-15T16:23:27.222Z,5.47
2022-09-15T16:26:01.946Z,4.20
2022-09-15T16:28:30.633Z,3.17
2022-09-15T16:30:59.235Z,2.88
2022-09-15T16:33:27.956Z,3.92
2022-09-15T16:36:05.234Z,3.22
2022-09-15T16:38:37.604Z,3.20
2022-09-15T16:41:16.289Z,3.85
2022-09-15T16:43:45.521Z,3.13
2022-09-15T16:46:14.959Z,3.40
2022-09-15T16:48:46.535Z,2.80
2022-09-15T16:51:30.872Z,3.20
2022-09-15T16:53:59.724Z,3.33
2022-09-15T16:56:28.285Z,3.25
2022-09-15T16:59:00.083Z,3.05
2022-09-15T17:01:29.096Z,4.57
2022-09-15T17:03:59.112Z,3.72
2022-09-15T17:06:27.673Z,3.53
2022-09-15T17:08:56.082Z,4.13
2022-09-15T17:11:25.587Z,3.45
2022-09-15T17:13:53.912Z,3.38
2022-09-15T17:16:22.492Z,3.60
2022-09-15T17:18:50.667Z,3.35
2022-09-15T17:21:19.906Z,3.75
2022-09-15T17:23:49.702Z,4.00
2022-09-15T17:26:24.689Z,3.85
2022-09-15T17:28:56.444Z,3.88
2022-09-15T17:31:25.121Z,4.13
2022-09-15T17:33:53.501Z,3.10
2022-09-15T17:36:22.056Z,3.63
2022-09-15T17:38:50.226Z,4.20
2022-09-15T17:41:24.617Z,4.47
2022-09-15T17:43:53.853Z,3.70
2022-09-15T17:46:22.114Z,4.15
2022-09-15T17:48:50.234Z,4.40
2022-09-15T17:51:19.158Z,4.07
2022-09-15T17:53:47.953Z,3.78
2022-09-15T17:56:16.381Z,3.80
2022-09-15T17:58:46.001Z,3.95
2022-09-15T18:01:15.026Z,3.85
2022-09-15T18:03:44.475Z,4.38
2022-09-15T18:06:13.362Z,4.38
2022-09-15T18:08:41.609Z,4.03
2022-09-15T18:11:13.373Z,4.10
2022-09-15T18:13:42.531Z,4.40
2022-09-15T18:16:15.392Z,4.57
2022-09-15T18:18:47.531Z,3.70
2022-09-15T18:21:48.574Z,4.30
2022-09-15T18:24:17.633Z,3.88
2022-09-15T18:26:46.067Z,4.38
2022-09-15T18:29:14.325Z,3.95
2022-09-15T18:31:42.851Z,4.20
2022-09-15T18:34:10.963Z,4.68
2022-09-15T18:36:40.539Z,5.05
2022-09-15T18:39:12.020Z,5.65
